sensor_id;sensor_type;location;lat;lon;timestamp;temperature;humidity
49373;DHT22;44113;38.408;-122.974;2022-11-04T00:01:53;24.10;44.40
49373;DHT22;44113;38.408;-122.974;2022-11-04T00:04:22;24.00;44.50
49373;DHT22;44113;38.408;-122.974;2022-11-04T00:06:49;24.00;44.60
49373;DHT22;44113;38.408;-122.974;2022-11-04T00:09:19;24.00;44.70
49373;DHT22;44113;38.408;-122.974;2022-11-04T00:11:46;23.90;44.70
49373;DHT22;44113;38.408;-122.974;2022-11-04T00:14:33;23.90;44.90
49373;DHT22;44113;38.408;-122.974;2022-11-04T00:17:00;23.90;44.70
49373;DHT22;44113;38.408;-122.974;2022-11-04T00:19:47;23.90;44.60
49373;DHT22;44113;38.408;-122.974;2022-11-04T00:22:33;23.90;44.80
49373;DHT22;44113;38.408;-122.974;2022-11-04T00:25:19;23.90;44.80
49373;DHT22;44113;38.408;-122.974;2022-11-04T00:28:15;23.80;44.80
49373;DHT22;44113;38.408;-122.974;2022-11-04T00:31:04;23.80;44.80
49373;DHT22;44113;38.408;-122.974;2022-11-04T00:33:51;23.80;44.80
49373;DHT22;44113;38.408;-122.974;2022-11-04T00:36:19;23.80;44.80
49373;DHT22;44113;38.408;-122.974;2022-11-04T00:38:46;23.70;44.80
49373;DHT22;44113;38.408;-122.974;2022-11-04T00:41:13;23.70;44.80
49373;DHT22;44113;38.408;-122.974;2022-11-04T00:44:00;23.70;44.80
49373;DHT22;44113;38.408;-122.974;2022-11-04T00:46:28;23.70;44.80
49373;DHT22;44113;38.408;-122.974;2022-11-04T00:48:55;23.70;44.80
49373;DHT22;44113;38.408;-122.974;2022-11-04T00:51:22;23.60;44.80
49373;DHT22;44113;38.408;-122.974;2022-11-04T00:53:50;23.60;44.80
49373;DHT22;44113;38.408;-122.974;2022-11-04T00:56:17;23.60;44.80
49373;DHT22;44113;38.408;-122.974;2022-11-04T00:58:44;23.60;44.90
49373;DHT22;44113;38.408;-122.974;2022-11-04T01:01:13;23.60;45.00
49373;DHT22;44113;38.408;-122.974;2022-11-04T01:03:47;23.50;45.00
49373;DHT22;44113;38.408;-122.974;2022-11-04T01:06:14;23.50;45.10
49373;DHT22;44113;38.408;-122.974;2022-11-04T01:08:41;23.50;44.80
49373;DHT22;44113;38.408;-122.974;2022-11-04T01:11:08;23.40;44.80
49373;DHT22;44113;38.408;-122.974;2022-11-04T01:13:36;23.40;45.00
49373;DHT22;44113;38.408;-122.974;2022-11-04T01:16:06;23.40;45.10
49373;DHT22;44113;38.408;-122.974;2022-11-04T01:18:34;23.40;45.10
49373;DHT22;44113;38.408;-122.974;2022-11-04T01:21:02;23.40;45.10
49373;DHT22;44113;38.408;-122.974;2022-11-04T01:23:30;23.30;45.10
49373;DHT22;44113;38.408;-122.974;2022-11-04T01:25:57;23.30;45.10
49373;DHT22;44113;38.408;-122.974;2022-11-04T01:28:23;23.20;45.30
49373;DHT22;44113;38.408;-122.974;2022-11-04T01:30:50;23.10;45.30
49373;DHT22;44113;38.408;-122.974;2022-11-04T01:33:16;23.10;45.40
49373;DHT22;44113;38.408;-122.974;2022-11-04T01:35:43;23.10;45.60
49373;DHT22;44113;38.408;-122.974;2022-11-04T01:38:09;23.10;45.60
49373;DHT22;44113;38.408;-122.974;2022-11-04T01:40:38;23.00;45.40
49373;DHT22;44113;38.408;-122.974;2022-11-04T01:43:15;23.00;45.60
49373;DHT22;44113;38.408;-122.974;2022-11-04T01:45:50;22.90;45.40
49373;DHT22;44113;38.408;-122.974;2022-11-04T01:48:30;22.90;45.60
49373;DHT22;44113;38.408;-122.974;2022-11-04T01:50:59;22.90;45.60
49373;DHT22;44113;38.408;-122.974;2022-11-04T01:53:29;22.90;45.60
49373;DHT22;44113;38.408;-122.974;2022-11-04T01:55:59;22.80;45.50
49373;DHT22;44113;38.408;-122.974;2022-11-04T01:58:31;22.80;45.50
49373;DHT22;44113;38.408;-122.974;2022-11-04T02:00:58;22.80;45.50
49373;DHT22;44113;38.408;-122.974;2022-11-04T02:03:38;22.70;45.40
49373;DHT22;44113;38.408;-122.974;2022-11-04T02:06:07;22.70;45.60
49373;DHT22;44113;38.408;-122.974;2022-11-04T02:08:34;22.70;45.70
49373;DHT22;44113;38.408;-122.974;2022-11-04T02:11:02;22.70;46.00
49373;DHT22;44113;38.408;-122.974;2022-11-04T02:13:31;22.60;45.80
49373;DHT22;44113;38.408;-122.974;2022-11-04T02:16:22;22.60;45.70
49373;DHT22;44113;38.408;-122.974;2022-11-04T02:21:35;22.50;46.00
49373;DHT22;44113;38.408;-122.974;2022-11-04T02:24:42;22.50;45.90
49373;DHT22;44113;38.408;-122.974;2022-11-04T02:46:05;22.30;45.80
49373;DHT22;44113;38.408;-122.974;2022-11-04T02:48:42;22.20;45.70
49373;DHT22;44113;38.408;-122.974;2022-11-04T02:51:19;22.20;45.70
49373;DHT22;44113;38.408;-122.974;2022-11-04T02:56:27;22.10;45.90
49373;DHT22;44113;38.408;-122.974;2022-11-04T02:59:03;22.10;46.00
49373;DHT22;44113;38.408;-122.974;2022-11-04T03:01:33;22.00;46.00
49373;DHT22;44113;38.408;-122.974;2022-11-04T03:04:25;22.00;46.10
49373;DHT22;44113;38.408;-122.974;2022-11-04T03:06:56;22.00;46.10
49373;DHT22;44113;38.408;-122.974;2022-11-04T03:09:23;21.90;46.10
49373;DHT22;44113;38.408;-122.974;2022-11-04T03:11:56;21.90;46.20
49373;DHT22;44113;38.408;-122.974;2022-11-04T03:14:46;21.90;46.10
49373;DHT22;44113;38.408;-122.974;2022-11-04T03:17:51;21.80;46.20
49373;DHT22;44113;38.408;-122.974;2022-11-04T03:20:21;21.80;46.20
49373;DHT22;44113;38.408;-122.974;2022-11-04T03:22:48;21.80;46.10
49373;DHT22;44113;38.408;-122.974;2022-11-04T03:25:15;21.70;45.80
49373;DHT22;44113;38.408;-122.974;2022-11-04T03:27:51;21.60;45.80
49373;DHT22;44113;38.408;-122.974;2022-11-04T03:30:21;21.60;45.90
49373;DHT22;44113;38.408;-122.974;2022-11-04T03:32:59;21.60;46.00
49373;DHT22;44113;38.408;-122.974;2022-11-04T03:35:28;21.50;46.10
49373;DHT22;44113;38.408;-122.974;2022-11-04T03:37:56;21.50;46.20
49373;DHT22;44113;38.408;-122.974;2022-11-04T03:40:24;21.50;46.50
49373;DHT22;44113;38.408;-122.974;2022-11-04T03:43:19;21.50;47.30
49373;DHT22;44113;38.408;-122.974;2022-11-04T03:45:47;21.50;47.40
49373;DHT22;44113;38.408;-122.974;2022-11-04T03:48:14;21.50;47.30
49373;DHT22;44113;38.408;-122.974;2022-11-04T03:50:45;21.50;47.20
49373;DHT22;44113;38.408;-122.974;2022-11-04T03:53:14;21.50;47.60
49373;DHT22;44113;38.408;-122.974;2022-11-04T04:04:04;21.30;47.70
49373;DHT22;44113;38.408;-122.974;2022-11-04T04:06:35;21.30;47.70
49373;DHT22;44113;38.408;-122.974;2022-11-04T04:09:21;21.20;47.50
49373;DHT22;44113;38.408;-122.974;2022-11-04T04:14:37;21.20;47.60
49373;DHT22;44113;38.408;-122.974;2022-11-04T04:17:31;21.20;47.60
49373;DHT22;44113;38.408;-122.974;2022-11-04T04:20:03;21.20;47.60
49373;DHT22;44113;38.408;-122.974;2022-11-04T04:23:11;21.10;47.70
49373;DHT22;44113;38.408;-122.974;2022-11-04T04:25:52;21.10;47.60
49373;DHT22;44113;38.408;-122.974;2022-11-04T04:28:38;21.10;47.70
49373;DHT22;44113;38.408;-122.974;2022-11-04T04:31:06;21.10;47.60
49373;DHT22;44113;38.408;-122.974;2022-11-04T04:33:34;21.00;47.50
49373;DHT22;44113;38.408;-122.974;2022-11-04T04:36:00;21.00;47.70
49373;DHT22;44113;38.408;-122.974;2022-11-04T04:38:29;20.90;47.70
49373;DHT22;44113;38.408;-122.974;2022-11-04T04:41:25;20.90;47.70
49373;DHT22;44113;38.408;-122.974;2022-11-04T04:44:26;20.90;47.70
49373;DHT22;44113;38.408;-122.974;2022-11-04T04:47:21;20.90;47.70
49373;DHT22;44113;38.408;-122.974;2022-11-04T04:49:52;20.90;47.90
49373;DHT22;44113;38.408;-122.974;2022-11-04T04:52:20;20.90;47.80
49373;DHT22;44113;38.408;-122.974;2022-11-04T04:54:47;20.90;47.80
49373;DHT22;44113;38.408;-122.974;2022-11-04T04:57:13;20.80;47.70
49373;DHT22;44113;38.408;-122.974;2022-11-04T04:59:41;20.80;47.70
49373;DHT22;44113;38.408;-122.974;2022-11-04T05:02:07;20.80;47.80
49373;DHT22;44113;38.408;-122.974;2022-11-04T05:04:35;20.70;47.80
49373;DHT22;44113;38.408;-122.974;2022-11-04T05:07:02;20.70;47.80
49373;DHT22;44113;38.408;-122.974;2022-11-04T05:09:31;20.70;47.80
49373;DHT22;44113;38.408;-122.974;2022-11-04T05:11:58;20.70;47.70
49373;DHT22;44113;38.408;-122.974;2022-11-04T05:14:24;20.70;47.90
49373;DHT22;44113;38.408;-122.974;2022-11-04T05:16:51;20.60;48.00
49373;DHT22;44113;38.408;-122.974;2022-11-04T05:19:18;20.60;48.20
49373;DHT22;44113;38.408;-122.974;2022-11-04T05:21:45;20.70;48.30
49373;DHT22;44113;38.408;-122.974;2022-11-04T05:24:11;20.80;48.30
49373;DHT22;44113;38.408;-122.974;2022-11-04T05:26:38;21.20;47.50
49373;DHT22;44113;38.408;-122.974;2022-11-04T05:29:05;21.90;46.90
49373;DHT22;44113;38.408;-122.974;2022-11-04T05:31:32;22.70;46.10
49373;DHT22;44113;38.408;-122.974;2022-11-04T05:33:59;23.40;44.70
49373;DHT22;44113;38.408;-122.974;2022-11-04T05:36:26;24.00;43.50
49373;DHT22;44113;38.408;-122.974;2022-11-04T05:38:53;24.30;43.60
49373;DHT22;44113;38.408;-122.974;2022-11-04T05:41:22;24.60;42.40
49373;DHT22;44113;38.408;-122.974;2022-11-04T05:43:57;24.90;41.80
49373;DHT22;44113;38.408;-122.974;2022-11-04T05:46:24;25.10;41.50
49373;DHT22;44113;38.408;-122.974;2022-11-04T05:48:51;25.30;41.10
49373;DHT22;44113;38.408;-122.974;2022-11-04T05:51:20;25.30;41.00
49373;DHT22;44113;38.408;-122.974;2022-11-04T05:53:47;25.40;40.80
49373;DHT22;44113;38.408;-122.974;2022-11-04T05:56:14;25.50;40.80
49373;DHT22;44113;38.408;-122.974;2022-11-04T05:58:41;25.50;40.80
49373;DHT22;44113;38.408;-122.974;2022-11-04T06:03:40;25.60;40.70
49373;DHT22;44113;38.408;-122.974;2022-11-04T06:06:06;25.60;40.60
49373;DHT22;44113;38.408;-122.974;2022-11-04T06:08:33;25.70;40.70
49373;DHT22;44113;38.408;-122.974;2022-11-04T06:10:59;25.70;40.70
49373;DHT22;44113;38.408;-122.974;2022-11-04T06:13:27;25.70;40.80
49373;DHT22;44113;38.408;-122.974;2022-11-04T06:15:53;25.70;40.80
49373;DHT22;44113;38.408;-122.974;2022-11-04T06:18:19;25.70;40.80
49373;DHT22;44113;38.408;-122.974;2022-11-04T06:20:46;25.60;41.50
49373;DHT22;44113;38.408;-122.974;2022-11-04T06:23:13;25.50;40.90
49373;DHT22;44113;38.408;-122.974;2022-11-04T06:25:40;25.50;41.10
49373;DHT22;44113;38.408;-122.974;2022-11-04T06:28:07;25.60;41.10
49373;DHT22;44113;38.408;-122.974;2022-11-04T06:30:33;25.50;40.90
49373;DHT22;44113;38.408;-122.974;2022-11-04T06:33:01;25.50;40.60
49373;DHT22;44113;38.408;-122.974;2022-11-04T06:35:27;25.50;40.80
49373;DHT22;44113;38.408;-122.974;2022-11-04T06:37:54;25.50;40.80
49373;DHT22;44113;38.408;-122.974;2022-11-04T06:40:21;25.50;40.90
49373;DHT22;44113;38.408;-122.974;2022-11-04T06:42:47;25.50;41.10
49373;DHT22;44113;38.408;-122.974;2022-11-04T06:45:15;25.50;41.10
49373;DHT22;44113;38.408;-122.974;2022-11-04T06:47:41;25.50;41.10
49373;DHT22;44113;38.408;-122.974;2022-11-04T06:50:09;25.40;41.20
49373;DHT22;44113;38.408;-122.974;2022-11-04T06:52:36;25.40;41.20
49373;DHT22;44113;38.408;-122.974;2022-11-04T06:55:02;25.40;41.30
49373;DHT22;44113;38.408;-122.974;2022-11-04T06:57:29;25.30;41.30
49373;DHT22;44113;38.408;-122.974;2022-11-04T06:59:56;25.30;41.30
49373;DHT22;44113;38.408;-122.974;2022-11-04T07:02:22;25.30;41.40
49373;DHT22;44113;38.408;-122.974;2022-11-04T07:04:50;25.30;41.30
49373;DHT22;44113;38.408;-122.974;2022-11-04T07:07:17;25.30;41.30
49373;DHT22;44113;38.408;-122.974;2022-11-04T07:09:44;25.30;41.40
49373;DHT22;44113;38.408;-122.974;2022-11-04T07:12:11;25.30;41.40
49373;DHT22;44113;38.408;-122.974;2022-11-04T07:14:39;25.20;41.40
49373;DHT22;44113;38.408;-122.974;2022-11-04T07:17:05;25.20;41.40
49373;DHT22;44113;38.408;-122.974;2022-11-04T07:19:32;25.20;41.40
49373;DHT22;44113;38.408;-122.974;2022-11-04T07:21:58;25.20;41.50
49373;DHT22;44113;38.408;-122.974;2022-11-04T07:24:25;25.20;41.50
49373;DHT22;44113;38.408;-122.974;2022-11-04T07:26:53;25.20;41.60
49373;DHT22;44113;38.408;-122.974;2022-11-04T07:29:21;25.10;41.60
49373;DHT22;44113;38.408;-122.974;2022-11-04T07:31:47;25.10;41.70
49373;DHT22;44113;38.408;-122.974;2022-11-04T07:34:14;25.00;41.60
49373;DHT22;44113;38.408;-122.974;2022-11-04T07:36:41;25.10;41.70
49373;DHT22;44113;38.408;-122.974;2022-11-04T07:39:07;25.00;41.70
49373;DHT22;44113;38.408;-122.974;2022-11-04T07:41:35;24.90;41.80
49373;DHT22;44113;38.408;-122.974;2022-11-04T07:44:01;24.90;41.80
49373;DHT22;44113;38.408;-122.974;2022-11-04T07:46:30;24.90;41.90
49373;DHT22;44113;38.408;-122.974;2022-11-04T07:48:58;24.90;42.00
49373;DHT22;44113;38.408;-122.974;2022-11-04T07:51:25;24.90;42.00
49373;DHT22;44113;38.408;-122.974;2022-11-04T07:53:52;24.80;42.10
49373;DHT22;44113;38.408;-122.974;2022-11-04T07:56:20;24.80;42.10
49373;DHT22;44113;38.408;-122.974;2022-11-04T07:58:49;24.70;42.20
49373;DHT22;44113;38.408;-122.974;2022-11-04T08:01:18;24.70;42.30
49373;DHT22;44113;38.408;-122.974;2022-11-04T08:03:44;24.60;42.30
49373;DHT22;44113;38.408;-122.974;2022-11-04T08:06:13;24.60;42.30
49373;DHT22;44113;38.408;-122.974;2022-11-04T08:08:40;24.60;42.40
49373;DHT22;44113;38.408;-122.974;2022-11-04T08:11:13;24.50;42.50
49373;DHT22;44113;38.408;-122.974;2022-11-04T08:13:40;24.50;42.70
49373;DHT22;44113;38.408;-122.974;2022-11-04T08:16:12;24.60;42.30
49373;DHT22;44113;38.408;-122.974;2022-11-04T08:18:40;24.40;42.50
49373;DHT22;44113;38.408;-122.974;2022-11-04T08:21:07;24.50;42.60
49373;DHT22;44113;38.408;-122.974;2022-11-04T08:23:34;24.60;42.40
49373;DHT22;44113;38.408;-122.974;2022-11-04T08:26:10;24.90;42.00
49373;DHT22;44113;38.408;-122.974;2022-11-04T08:28:37;25.20;41.70
49373;DHT22;44113;38.408;-122.974;2022-11-04T08:31:06;25.70;41.20
49373;DHT22;44113;38.408;-122.974;2022-11-04T08:33:36;26.30;40.60
49373;DHT22;44113;38.408;-122.974;2022-11-04T08:36:08;26.80;40.10
49373;DHT22;44113;38.408;-122.974;2022-11-04T08:38:35;27.30;39.50
49373;DHT22;44113;38.408;-122.974;2022-11-04T08:41:03;27.70;39.40
49373;DHT22;44113;38.408;-122.974;2022-11-04T08:43:31;28.00;39.00
49373;DHT22;44113;38.408;-122.974;2022-11-04T08:45:59;28.20;39.00
49373;DHT22;44113;38.408;-122.974;2022-11-04T08:48:26;28.20;38.80
49373;DHT22;44113;38.408;-122.974;2022-11-04T08:50:55;28.20;38.70
49373;DHT22;44113;38.408;-122.974;2022-11-04T08:53:24;28.20;39.00
49373;DHT22;44113;38.408;-122.974;2022-11-04T08:55:51;28.20;39.00
49373;DHT22;44113;38.408;-122.974;2022-11-04T08:58:19;28.20;38.90
49373;DHT22;44113;38.408;-122.974;2022-11-04T09:00:45;28.30;39.10
49373;DHT22;44113;38.408;-122.974;2022-11-04T09:03:12;28.40;39.20
49373;DHT22;44113;38.408;-122.974;2022-11-04T09:05:40;28.50;39.00
49373;DHT22;44113;38.408;-122.974;2022-11-04T09:08:15;28.60;39.00
49373;DHT22;44113;38.408;-122.974;2022-11-04T09:10:46;28.70;38.80
49373;DHT22;44113;38.408;-122.974;2022-11-04T09:13:14;28.70;38.60
49373;DHT22;44113;38.408;-122.974;2022-11-04T09:15:41;28.80;38.80
49373;DHT22;44113;38.408;-122.974;2022-11-04T09:18:10;28.80;38.70
49373;DHT22;44113;38.408;-122.974;2022-11-04T09:20:37;28.90;38.70
49373;DHT22;44113;38.408;-122.974;2022-11-04T09:23:04;29.00;38.70
49373;DHT22;44113;38.408;-122.974;2022-11-04T09:25:31;29.10;38.40
49373;DHT22;44113;38.408;-122.974;2022-11-04T09:27:58;29.10;38.50
49373;DHT22;44113;38.408;-122.974;2022-11-04T09:30:25;29.20;38.50
49373;DHT22;44113;38.408;-122.974;2022-11-04T09:32:51;29.20;38.30
49373;DHT22;44113;38.408;-122.974;2022-11-04T09:35:18;29.30;38.40
49373;DHT22;44113;38.408;-122.974;2022-11-04T09:37:46;29.30;38.40
49373;DHT22;44113;38.408;-122.974;2022-11-04T09:40:18;29.40;38.50
49373;DHT22;44113;38.408;-122.974;2022-11-04T09:45:55;29.50;38.40
49373;DHT22;44113;38.408;-122.974;2022-11-04T09:48:43;29.50;38.30
49373;DHT22;44113;38.408;-122.974;2022-11-04T09:51:10;29.50;38.20
49373;DHT22;44113;38.408;-122.974;2022-11-04T09:53:47;29.60;38.20
49373;DHT22;44113;38.408;-122.974;2022-11-04T09:56:27;29.70;38.30
49373;DHT22;44113;38.408;-122.974;2022-11-04T09:58:55;29.70;38.30
49373;DHT22;44113;38.408;-122.974;2022-11-04T10:01:25;29.70;38.00
49373;DHT22;44113;38.408;-122.974;2022-11-04T10:12:45;29.70;38.00
49373;DHT22;44113;38.408;-122.974;2022-11-04T10:23:26;29.70;38.00
49373;DHT22;44113;38.408;-122.974;2022-11-04T10:26:14;29.70;38.00
49373;DHT22;44113;38.408;-122.974;2022-11-04T10:28:49;29.50;38.10
49373;DHT22;44113;38.408;-122.974;2022-11-04T10:31:18;29.60;38.20
49373;DHT22;44113;38.408;-122.974;2022-11-04T10:33:53;29.50;38.10
49373;DHT22;44113;38.408;-122.974;2022-11-04T10:36:20;29.50;38.10
49373;DHT22;44113;38.408;-122.974;2022-11-04T10:41:38;29.60;38.00
49373;DHT22;44113;38.408;-122.974;2022-11-04T10:44:09;29.50;38.20
49373;DHT22;44113;38.408;-122.974;2022-11-04T10:49:54;29.50;38.00
49373;DHT22;44113;38.408;-122.974;2022-11-04T10:52:22;29.50;38.20
49373;DHT22;44113;38.408;-122.974;2022-11-04T10:54:49;29.50;38.00
49373;DHT22;44113;38.408;-122.974;2022-11-04T10:57:19;29.40;38.00
49373;DHT22;44113;38.408;-122.974;2022-11-04T10:59:57;29.40;38.10
49373;DHT22;44113;38.408;-122.974;2022-11-04T11:05:14;29.30;38.60
49373;DHT22;44113;38.408;-122.974;2022-11-04T11:07:53;29.30;38.30
49373;DHT22;44113;38.408;-122.974;2022-11-04T11:10:24;29.30;38.20
49373;DHT22;44113;38.408;-122.974;2022-11-04T11:13:02;29.20;38.20
49373;DHT22;44113;38.408;-122.974;2022-11-04T11:15:34;29.20;38.10
49373;DHT22;44113;38.408;-122.974;2022-11-04T11:20:34;29.10;38.00
49373;DHT22;44113;38.408;-122.974;2022-11-04T11:23:03;29.00;38.00
49373;DHT22;44113;38.408;-122.974;2022-11-04T11:25:35;29.00;38.10
49373;DHT22;44113;38.408;-122.974;2022-11-04T11:28:12;29.00;38.10
49373;DHT22;44113;38.408;-122.974;2022-11-04T11:33:31;28.90;38.20
49373;DHT22;44113;38.408;-122.974;2022-11-04T11:36:22;28.90;38.30
49373;DHT22;44113;38.408;-122.974;2022-11-04T11:39:03;28.80;38.30
49373;DHT22;44113;38.408;-122.974;2022-11-04T11:41:33;28.70;38.40
49373;DHT22;44113;38.408;-122.974;2022-11-04T11:44:06;28.70;38.30
49373;DHT22;44113;38.408;-122.974;2022-11-04T11:46:51;28.60;38.30
49373;DHT22;44113;38.408;-122.974;2022-11-04T11:49:28;28.60;38.40
49373;DHT22;44113;38.408;-122.974;2022-11-04T11:55:17;28.50;39.00
49373;DHT22;44113;38.408;-122.974;2022-11-04T12:00:20;28.40;38.60
49373;DHT22;44113;38.408;-122.974;2022-11-04T12:05:20;28.30;38.60
49373;DHT22;44113;38.408;-122.974;2022-11-04T12:11:39;28.20;38.70
49373;DHT22;44113;38.408;-122.974;2022-11-04T12:13:54;28.10;38.80
49373;DHT22;44113;38.408;-122.974;2022-11-04T12:16:49;28.10;38.80
49373;DHT22;44113;38.408;-122.974;2022-11-04T12:22:00;28.00;38.90
49373;DHT22;44113;38.408;-122.974;2022-11-04T12:27:33;27.80;39.00
49373;DHT22;44113;38.408;-122.974;2022-11-04T12:30:18;27.70;38.90
49373;DHT22;44113;38.408;-122.974;2022-11-04T12:36:31;27.60;39.10
49373;DHT22;44113;38.408;-122.974;2022-11-04T12:42:00;27.50;39.10
49373;DHT22;44113;38.408;-122.974;2022-11-04T12:47:42;27.40;39.20
49373;DHT22;44113;38.408;-122.974;2022-11-04T12:50:57;27.40;39.40
49373;DHT22;44113;38.408;-122.974;2022-11-04T13:01:49;27.10;39.30
49373;DHT22;44113;38.408;-122.974;2022-11-04T13:04:29;27.10;39.40
49373;DHT22;44113;38.408;-122.974;2022-11-04T13:07:07;27.00;39.30
49373;DHT22;44113;38.408;-122.974;2022-11-04T13:09:45;26.90;39.40
49373;DHT22;44113;38.408;-122.974;2022-11-04T13:12:18;26.90;39.50
49373;DHT22;44113;38.408;-122.974;2022-11-04T13:14:47;26.80;39.60
49373;DHT22;44113;38.408;-122.974;2022-11-04T13:17:40;26.70;39.50
49373;DHT22;44113;38.408;-122.974;2022-11-04T13:22:39;26.60;39.60
49373;DHT22;44113;38.408;-122.974;2022-11-04T13:25:21;26.60;39.60
49373;DHT22;44113;38.408;-122.974;2022-11-04T13:27:50;26.60;39.50
49373;DHT22;44113;38.408;-122.974;2022-11-04T13:38:27;26.30;39.70
49373;DHT22;44113;38.408;-122.974;2022-11-04T13:43:55;26.20;39.70
49373;DHT22;44113;38.408;-122.974;2022-11-04T13:51:41;26.10;39.80
49373;DHT22;44113;38.408;-122.974;2022-11-04T13:54:36;26.00;39.80
49373;DHT22;44113;38.408;-122.974;2022-11-04T13:57:27;26.00;39.90
49373;DHT22;44113;38.408;-122.974;2022-11-04T14:02:54;25.90;40.00
49373;DHT22;44113;38.408;-122.974;2022-11-04T14:18:53;25.50;40.20
49373;DHT22;44113;38.408;-122.974;2022-11-04T14:21:25;25.40;40.20
49373;DHT22;44113;38.408;-122.974;2022-11-04T14:23:56;25.40;40.30
49373;DHT22;44113;38.408;-122.974;2022-11-04T14:26:40;25.40;40.30
49373;DHT22;44113;38.408;-122.974;2022-11-04T14:29:18;25.30;40.20
49373;DHT22;44113;38.408;-122.974;2022-11-04T14:31:55;25.20;40.20
49373;DHT22;44113;38.408;-122.974;2022-11-04T14:34:26;25.20;40.30
49373;DHT22;44113;38.408;-122.974;2022-11-04T14:37:19;25.10;40.30
49373;DHT22;44113;38.408;-122.974;2022-11-04T14:39:56;25.10;40.40
49373;DHT22;44113;38.408;-122.974;2022-11-04T14:42:53;25.00;40.40
49373;DHT22;44113;38.408;-122.974;2022-11-04T14:45:27;25.00;40.50
49373;DHT22;44113;38.408;-122.974;2022-11-04T14:47:58;24.90;40.60
49373;DHT22;44113;38.408;-122.974;2022-11-04T14:50:31;24.90;40.60
49373;DHT22;44113;38.408;-122.974;2022-11-04T14:53:00;24.80;40.60
49373;DHT22;44113;38.408;-122.974;2022-11-04T14:55:30;24.80;40.70
49373;DHT22;44113;38.408;-122.974;2022-11-04T14:58:19;24.80;40.70
49373;DHT22;44113;38.408;-122.974;2022-11-04T15:05:50;24.60;40.80
49373;DHT22;44113;38.408;-122.974;2022-11-04T15:11:14;24.50;40.90
49373;DHT22;44113;38.408;-122.974;2022-11-04T15:13:46;24.40;41.00
49373;DHT22;44113;38.408;-122.974;2022-11-04T15:16:22;24.40;41.00
49373;DHT22;44113;38.408;-122.974;2022-11-04T15:18:52;24.40;41.20
49373;DHT22;44113;38.408;-122.974;2022-11-04T15:21:20;24.30;41.20
49373;DHT22;44113;38.408;-122.974;2022-11-04T15:23:50;24.30;41.20
49373;DHT22;44113;38.408;-122.974;2022-11-04T15:26:27;24.30;41.20
49373;DHT22;44113;38.408;-122.974;2022-11-04T15:28:56;24.20;41.30
49373;DHT22;44113;38.408;-122.974;2022-11-04T15:31:24;24.20;41.40
49373;DHT22;44113;38.408;-122.974;2022-11-04T15:33:54;24.20;41.50
49373;DHT22;44113;38.408;-122.974;2022-11-04T15:36:36;24.00;41.50
49373;DHT22;44113;38.408;-122.974;2022-11-04T15:39:29;24.00;41.50
49373;DHT22;44113;38.408;-122.974;2022-11-04T15:41:57;24.00;41.70
49373;DHT22;44113;38.408;-122.974;2022-11-04T15:44:49;24.00;41.70
49373;DHT22;44113;38.408;-122.974;2022-11-04T15:49:47;23.90;42.00
49373;DHT22;44113;38.408;-122.974;2022-11-04T15:52:19;23.90;41.90
49373;DHT22;44113;38.408;-122.974;2022-11-04T15:54:50;23.80;41.90
49373;DHT22;44113;38.408;-122.974;2022-11-04T15:57:31;23.80;41.90
49373;DHT22;44113;38.408;-122.974;2022-11-04T16:00:22;23.80;41.90
49373;DHT22;44113;38.408;-122.974;2022-11-04T16:02:54;23.70;42.00
49373;DHT22;44113;38.408;-122.974;2022-11-04T16:05:35;23.70;42.00
49373;DHT22;44113;38.408;-122.974;2022-11-04T16:08:34;23.60;42.00
49373;DHT22;44113;38.408;-122.974;2022-11-04T16:11:18;23.60;42.20
49373;DHT22;44113;38.408;-122.974;2022-11-04T16:13:45;23.50;42.10
49373;DHT22;44113;38.408;-122.974;2022-11-04T16:18:56;23.50;42.30
49373;DHT22;44113;38.408;-122.974;2022-11-04T16:21:29;23.50;42.40
49373;DHT22;44113;38.408;-122.974;2022-11-04T16:24:06;23.40;42.40
49373;DHT22;44113;38.408;-122.974;2022-11-04T16:26:42;23.40;42.40
49373;DHT22;44113;38.408;-122.974;2022-11-04T16:29:16;23.40;42.50
49373;DHT22;44113;38.408;-122.974;2022-11-04T16:31:44;23.30;42.50
49373;DHT22;44113;38.408;-122.974;2022-11-04T16:34:12;23.30;42.70
49373;DHT22;44113;38.408;-122.974;2022-11-04T16:36:39;23.20;42.80
49373;DHT22;44113;38.408;-122.974;2022-11-04T16:39:06;23.20;42.90
49373;DHT22;44113;38.408;-122.974;2022-11-04T16:41:37;23.10;43.00
49373;DHT22;44113;38.408;-122.974;2022-11-04T16:44:08;23.10;43.00
49373;DHT22;44113;38.408;-122.974;2022-11-04T16:46:39;23.00;42.90
49373;DHT22;44113;38.408;-122.974;2022-11-04T16:49:09;23.00;43.10
49373;DHT22;44113;38.408;-122.974;2022-11-04T16:51:37;23.00;43.00
49373;DHT22;44113;38.408;-122.974;2022-11-04T16:54:03;23.00;43.10
49373;DHT22;44113;38.408;-122.974;2022-11-04T16:56:32;23.00;43.10
49373;DHT22;44113;38.408;-122.974;2022-11-04T16:58:59;23.00;43.20
49373;DHT22;44113;38.408;-122.974;2022-11-04T17:01:25;23.00;43.20
49373;DHT22;44113;38.408;-122.974;2022-11-04T17:03:53;22.90;43.30
49373;DHT22;44113;38.408;-122.974;2022-11-04T17:06:20;22.90;43.60
49373;DHT22;44113;38.408;-122.974;2022-11-04T17:08:47;22.80;43.80
49373;DHT22;44113;38.408;-122.974;2022-11-04T17:11:14;22.90;44.50
49373;DHT22;44113;38.408;-122.974;2022-11-04T17:13:40;22.80;44.00
49373;DHT22;44113;38.408;-122.974;2022-11-04T17:16:11;22.80;44.10
49373;DHT22;44113;38.408;-122.974;2022-11-04T17:18:38;22.70;44.80
49373;DHT22;44113;38.408;-122.974;2022-11-04T17:21:06;22.70;44.20
49373;DHT22;44113;38.408;-122.974;2022-11-04T17:23:33;22.70;44.20
49373;DHT22;44113;38.408;-122.974;2022-11-04T17:26:00;22.70;44.40
49373;DHT22;44113;38.408;-122.974;2022-11-04T17:28:28;22.60;44.40
49373;DHT22;44113;38.408;-122.974;2022-11-04T17:30:56;22.60;44.60
49373;DHT22;44113;38.408;-122.974;2022-11-04T17:33:23;22.60;45.00
49373;DHT22;44113;38.408;-122.974;2022-11-04T17:35:50;22.60;45.00
49373;DHT22;44113;38.408;-122.974;2022-11-04T17:38:17;22.50;45.10
49373;DHT22;44113;38.408;-122.974;2022-11-04T17:40:44;22.50;45.10
49373;DHT22;44113;38.408;-122.974;2022-11-04T17:43:30;22.50;45.10
49373;DHT22;44113;38.408;-122.974;2022-11-04T17:46:15;22.50;45.20
49373;DHT22;44113;38.408;-122.974;2022-11-04T17:49:05;22.50;45.30
49373;DHT22;44113;38.408;-122.974;2022-11-04T17:51:34;22.50;45.50
49373;DHT22;44113;38.408;-122.974;2022-11-04T17:54:01;22.50;45.50